Time;durP1;ratioP1;P1;durP2;ratioP2;P2;SDS_P1;SDS_P2;PMS_P1;PMS_P2;Temp;Humidity;BMP_temperature;BMP_pressure;BME280_temperature;BME280_humidity;BME280_pressure;Samples;Min_cycle;Max_cycle;Signal;HPM_P1;HPM_P2
2023/05/18 00:08:00;;;;;;;10.20;9.60;;;9.50;99.90;;;;;;4955272;28;20515;-84
2023/05/18 00:11:18;;;;;;;10.50;9.83;;;9.40;99.90;;;;;;4959213;28;21006;-85
2023/05/18 00:14:32;;;;;;;10.10;9.60;;;9.40;99.90;;;;;;4950195;28;20509;-83
2023/05/18 00:17:21;;;;;;;10.57;9.97;;;9.30;99.90;;;;;;4958120;28;20490;-84
2023/05/18 00:20:20;;;;;;;10.97;9.93;;;9.30;99.90;;;;;;4955978;28;20485;-84
2023/05/18 00:23:23;;;;;;;10.53;9.93;;;9.30;99.90;;;;;;4958279;28;20487;-85
2023/05/18 00:26:06;;;;;;;10.80;10.10;;;9.50;99.90;;;;;;4990327;23;20508;-84
2023/05/18 00:32:39;;;;;;;10.27;9.57;;;9.30;99.90;;;;;;4921049;28;20614;-84
2023/05/18 00:35:46;;;;;;;10.13;9.57;;;9.30;99.90;;;;;;4920036;29;20497;-84
2023/05/18 00:38:25;;;;;;;11.90;11.03;;;9.30;99.90;;;;;;4896457;29;20460;-83
2023/05/18 00:41:17;;;;;;;10.90;10.30;;;9.30;99.90;;;;;;4898809;29;20537;-83
2023/05/18 00:44:29;;;;;;;12.10;11.10;;;9.20;99.90;;;;;;4901966;29;20785;-83
2023/05/18 00:47:20;;;;;;;11.67;10.77;;;9.20;99.90;;;;;;4899585;29;20522;-84
2023/05/18 00:50:17;;;;;;;11.87;11.07;;;9.20;99.90;;;;;;4901689;29;20528;-83
2023/05/18 00:56:34;;;;;;;11.90;11.20;;;9.20;99.90;;;;;;4900173;29;20555;-84
2023/05/18 00:59:22;;;;;;;10.57;9.90;;;9.20;99.90;;;;;;4898013;29;20515;-81
2023/05/18 01:05:26;;;;;;;10.10;9.50;;;9.10;99.90;;;;;;4898276;29;20551;-83
2023/05/18 01:08:42;;;;;;;11.60;10.90;;;9.10;99.90;;;;;;4900855;29;20467;-83
2023/05/18 01:11:40;;;;;;;10.93;10.23;;;9.10;99.90;;;;;;4910137;29;20591;-83
2023/05/18 01:14:16;;;;;;;11.10;10.27;;;9.10;99.90;;;;;;4900463;29;20546;-84
2023/05/18 01:17:04;;;;;;;11.03;10.33;;;9.00;99.90;;;;;;4897667;29;20553;-84
2023/05/18 01:20:15;;;;;;;10.50;9.90;;;9.00;99.90;;;;;;4900732;29;20601;-83
2023/05/18 01:23:28;;;;;;;11.80;10.80;;;9.00;99.90;;;;;;4901807;29;20480;-84
2023/05/18 01:29:51;;;;;;;11.00;10.30;;;8.90;99.90;;;;;;4902158;29;21091;-84
2023/05/18 01:32:45;;;;;;;10.30;9.60;;;8.90;99.90;;;;;;4899779;29;20485;-84
2023/05/18 01:35:49;;;;;;;9.97;9.47;;;8.80;99.90;;;;;;4902185;29;20552;-84
2023/05/18 01:38:41;;;;;;;10.87;10.30;;;8.70;99.90;;;;;;4898749;29;21033;-82
2023/05/18 01:41:35;;;;;;;9.80;9.30;;;8.70;99.90;;;;;;4902011;29;20458;-84
2023/05/18 01:44:34;;;;;;;11.57;10.87;;;8.70;99.90;;;;;;4911641;29;20559;-84
2023/05/18 01:47:23;;;;;;;10.43;9.83;;;8.70;99.90;;;;;;4898903;29;20478;-83
2023/05/18 01:50:10;;;;;;;11.10;10.13;;;8.70;99.90;;;;;;4897649;29;20498;-83
2023/05/18 01:53:19;;;;;;;11.23;10.30;;;8.70;99.90;;;;;;4899673;29;20468;-81
2023/05/18 01:56:29;;;;;;;11.23;10.37;;;8.60;99.90;;;;;;4900724;29;20491;-81
2023/05/18 01:59:13;;;;;;;10.77;10.13;;;8.70;99.90;;;;;;4901311;29;21065;-82
2023/05/18 02:02:04;;;;;;;10.27;9.40;;;8.70;99.90;;;;;;4906968;29;20479;-82
2023/05/18 02:04:38;;;;;;;9.37;8.87;;;8.60;99.90;;;;;;4904011;29;20469;-82
2023/05/18 02:07:35;;;;;;;9.60;8.97;;;8.60;99.90;;;;;;4894733;29;20489;-85
2023/05/18 02:10:50;;;;;;;9.60;9.07;;;8.60;99.90;;;;;;4900630;29;20485;-83
2023/05/18 02:13:35;;;;;;;10.57;9.47;;;8.50;99.90;;;;;;4906460;29;20549;-85
2023/05/18 02:16:41;;;;;;;10.07;9.47;;;8.50;99.90;;;;;;4904420;29;20508;-85
2023/05/18 02:19:29;;;;;;;9.90;9.27;;;8.50;99.90;;;;;;4904814;29;20832;-84
2023/05/18 02:22:20;;;;;;;10.77;9.97;;;8.60;99.90;;;;;;4917276;29;20467;-84
2023/05/18 02:28:17;;;;;;;10.20;9.60;;;8.60;99.90;;;;;;4918318;29;20478;-84
2023/05/18 02:31:04;;;;;;;10.60;9.83;;;8.60;99.90;;;;;;4902865;29;20516;-83
2023/05/18 02:33:46;;;;;;;10.33;9.63;;;8.60;99.90;;;;;;4906156;29;20470;-84
2023/05/18 02:36:56;;;;;;;10.80;9.80;;;8.70;99.90;;;;;;4917963;29;20493;-84
2023/05/18 02:39:57;;;;;;;11.27;10.47;;;8.60;99.90;;;;;;4901843;29;20460;-84
2023/05/18 02:42:39;;;;;;;11.10;10.50;;;8.70;99.90;;;;;;4916413;29;20524;-84
2023/05/18 02:45:15;;;;;;;11.07;10.37;;;8.70;99.90;;;;;;4917901;29;20460;-83
2023/05/18 02:47:47;;;;;;;11.10;10.40;;;8.70;99.90;;;;;;4902454;29;20488;-83
2023/05/18 02:50:25;;;;;;;11.67;10.90;;;8.70;99.90;;;;;;4915210;29;20682;-83
2023/05/18 02:53:03;;;;;;;10.87;10.13;;;8.80;99.90;;;;;;4916415;29;20572;-84
2023/05/18 02:55:47;;;;;;;11.40;10.43;;;8.70;99.90;;;;;;4891779;29;22153;-83
2023/05/18 02:58:27;;;;;;;11.17;10.20;;;8.70;99.90;;;;;;4901938;29;20472;-86
2023/05/18 03:01:08;;;;;;;11.40;10.60;;;8.70;99.90;;;;;;4901775;29;20462;-85
2023/05/18 03:04:15;;;;;;;10.23;9.63;;;8.70;99.90;;;;;;4907069;29;20482;-85
2023/05/18 03:07:20;;;;;;;11.47;10.67;;;8.70;99.90;;;;;;4901671;29;20489;-84
2023/05/18 03:16:10;;;;;;;11.10;10.03;;;8.70;99.90;;;;;;4889921;29;20488;-85
2023/05/18 03:22:07;;;;;;;11.33;10.40;;;8.70;99.90;;;;;;4901896;29;20556;-84
2023/05/18 03:28:29;;;;;;;10.37;9.77;;;8.60;99.90;;;;;;4877595;29;21096;-84
2023/05/18 03:31:12;;;;;;;11.77;10.97;;;8.50;99.90;;;;;;4899764;29;20496;-83
2023/05/18 03:34:08;;;;;;;11.43;10.60;;;8.50;99.90;;;;;;4902424;29;20556;-84
2023/05/18 03:37:06;;;;;;;12.10;11.00;;;8.50;99.90;;;;;;4896075;29;20492;-83
2023/05/18 03:39:51;;;;;;;10.87;10.17;;;8.60;99.90;;;;;;4899330;29;20465;-82
2023/05/18 03:42:48;;;;;;;10.80;10.30;;;8.60;99.90;;;;;;4901188;29;20481;-83
2023/05/18 03:45:49;;;;;;;11.47;10.70;;;8.60;99.90;;;;;;4898352;29;20472;-83
2023/05/18 03:48:49;;;;;;;10.90;10.30;;;8.50;99.90;;;;;;4902683;29;20460;-81
2023/05/18 03:51:42;;;;;;;11.90;10.93;;;8.60;99.90;;;;;;4901304;29;20866;-83
2023/05/18 03:54:41;;;;;;;10.93;10.10;;;8.50;99.90;;;;;;4902028;29;20732;-83
2023/05/18 04:04:53;;;;;;;11.67;10.87;;;8.60;99.90;;;;;;4898939;29;20512;-83
2023/05/18 04:08:04;;;;;;;11.67;10.80;;;8.60;99.90;;;;;;4915279;29;20594;-83
2023/05/18 04:11:06;;;;;;;11.47;10.47;;;8.50;99.90;;;;;;4898362;29;20511;-82
2023/05/18 04:14:09;;;;;;;11.17;10.50;;;8.50;99.90;;;;;;4900698;29;20495;-84
2023/05/18 04:20:31;;;;;;;11.00;10.30;;;8.50;99.90;;;;;;4903359;29;20511;-82
2023/05/18 04:23:32;;;;;;;11.43;10.50;;;8.40;99.90;;;;;;4898170;29;20464;-83
2023/05/18 04:37:04;;;;;;;12.10;11.30;;;8.50;99.90;;;;;;4819203;29;21050;-84
2023/05/18 04:53:07;;;;;;;11.23;10.53;;;8.60;99.90;;;;;;4851152;29;20460;-83
2023/05/18 04:59:35;;;;;;;12.20;11.03;;;8.60;99.90;;;;;;4850037;29;20465;-84
2023/05/18 05:02:39;;;;;;;11.57;10.67;;;8.70;99.90;;;;;;4849731;29;20467;-84
2023/05/18 05:09:00;;;;;;;11.40;10.73;;;8.80;99.90;;;;;;4906331;29;20476;-84
2023/05/18 05:11:55;;;;;;;11.50;10.80;;;8.90;99.90;;;;;;4900849;29;20491;-84
2023/05/18 05:15:15;;;;;;;10.77;10.17;;;8.90;99.90;;;;;;4911774;29;20465;-85
2023/05/18 05:32:53;;;;;;;11.90;10.77;;;9.10;99.90;;;;;;4864659;29;20628;-83
2023/05/18 05:36:00;;;;;;;12.27;11.00;;;9.10;99.90;;;;;;4847159;29;20475;-83
2023/05/18 05:42:10;;;;;;;11.50;10.77;;;9.20;99.90;;;;;;4867137;29;20505;-83
2023/05/18 05:48:34;;;;;;;11.33;10.53;;;9.40;99.90;;;;;;4867996;29;20951;-81
2023/05/18 05:51:44;;;;;;;11.13;10.53;;;9.40;99.90;;;;;;4870175;29;20847;-84
2023/05/18 05:54:52;;;;;;;12.60;11.40;;;9.50;99.90;;;;;;4865695;29;20473;-84
2023/05/18 05:57:54;;;;;;;11.03;10.40;;;9.60;99.90;;;;;;4868022;29;20513;-83
2023/05/18 06:00:45;;;;;;;11.77;10.87;;;9.70;99.90;;;;;;4868877;29;20468;-83
2023/05/18 06:10:45;;;;;;;12.00;11.30;;;10.00;99.90;;;;;;4871376;29;20457;-84
2023/05/18 06:14:15;;;;;;;11.77;11.10;;;10.10;99.90;;;;;;4843771;29;20877;-84
2023/05/18 06:27:29;;;;;;;11.93;11.20;;;10.40;99.90;;;;;;4868281;29;20602;-82
2023/05/18 06:30:48;;;;;;;12.70;11.90;;;10.60;99.90;;;;;;4864598;29;20478;-83
2023/05/18 06:34:24;;;;;;;12.33;11.47;;;10.80;99.90;;;;;;4864561;29;20463;-79
2023/05/18 06:47:38;;;;;;;13.50;12.63;;;11.70;99.90;;;;;;4829352;29;20539;-84
2023/05/18 06:56:50;;;;;;;11.67;11.10;;;11.90;99.90;;;;;;4865078;29;20496;-85
2023/05/18 07:03:48;;;;;;;;;;;;;;;;;;;;;
2023/05/18 07:10:15;;;;;;;12.97;12.27;;;12.30;99.90;;;;;;4865061;29;20765;-83
2023/05/18 07:13:16;;;;;;;12.53;11.93;;;12.40;99.90;;;;;;4867333;29;20629;-84
2023/05/18 07:20:00;;;;;;;12.60;11.90;;;12.40;99.90;;;;;;4866140;29;20503;-82
2023/05/18 07:23:09;;;;;;;12.80;11.90;;;12.40;99.90;;;;;;4869108;29;20800;-83
2023/05/18 07:26:15;;;;;;;;;;;;;;;;;;;;;
2023/05/18 07:29:41;;;;;;;13.40;12.30;;;12.40;99.90;;;;;;4868735;29;20468;-84
2023/05/18 07:32:45;;;;;;;13.20;12.30;;;12.50;99.90;;;;;;4883464;29;20493;-84
2023/05/18 07:35:51;;;;;;;12.43;11.80;;;12.50;99.90;;;;;;4860529;29;21090;-83
2023/05/18 07:39:03;;;;;;;12.80;12.00;;;12.70;99.90;;;;;;4859238;29;20468;-82
2023/05/18 07:49:07;;;;;;;14.30;13.33;;;12.90;99.90;;;;;;4845661;29;20479;-85
2023/05/18 07:52:18;;;;;;;14.00;12.67;;;13.00;99.90;;;;;;4848178;29;20493;-84
2023/05/18 07:55:53;;;;;;;;;;;;;;;;;;;;;
2023/05/18 07:59:01;;;;;;;14.17;12.90;;;13.00;99.90;;;;;;4879350;29;21480;-83
2023/05/18 08:09:08;;;;;;;14.47;13.60;;;13.20;99.90;;;;;;4654803;23;20591;-84
2023/05/18 08:11:53;;;;;;;14.03;12.83;;;13.20;99.90;;;;;;4909788;29;20491;-84
2023/05/18 08:21:40;;;;;;;14.43;13.07;;;13.40;99.90;;;;;;4788811;29;20473;-83
2023/05/18 08:28:02;;;;;;;14.15;13.45;;;13.60;99.90;;;;;;4935805;28;20463;-85
2023/05/18 08:30:48;;;;;;;;;;;;;;;;;;;;;
2023/05/18 08:44:36;;;;;;;13.50;12.90;;;13.90;99.90;;;;;;4945748;29;20523;-84
2023/05/18 08:47:38;;;;;;;;;;;;;;;;;;;;;
2023/05/18 08:58:13;;;;;;;14.47;13.60;;;14.20;99.90;;;;;;4916760;29;21100;-83
2023/05/18 09:01:49;;;;;;;13.47;12.83;;;14.20;99.90;;;;;;4917794;29;20464;-80
2023/05/18 09:05:08;;;;;;;14.03;13.33;;;14.20;99.90;;;;;;4884698;29;20468;-83
2023/05/18 09:11:12;;;;;;;15.30;14.57;;;14.30;99.90;;;;;;4920254;29;21049;-82
2023/05/18 09:14:18;;;;;;;13.63;13.00;;;14.50;99.90;;;;;;4922030;29;20485;-84
2023/05/18 09:17:12;;;;;;;13.37;12.77;;;14.50;99.90;;;;;;4920829;29;20489;-85
2023/05/18 09:26:38;;;;;;;14.67;13.97;;;14.80;99.90;;;;;;4924781;29;20547;-84
2023/05/18 09:29:39;;;;;;;13.63;12.90;;;15.00;99.90;;;;;;4920137;29;20577;-83
2023/05/18 09:32:46;;;;;;;13.73;12.97;;;14.90;99.90;;;;;;4922825;29;20513;-83
2023/05/18 09:38:42;;;;;;;14.60;13.90;;;15.00;99.90;;;;;;4873939;29;21060;-83
2023/05/18 09:42:14;;;;;;;14.03;13.20;;;15.10;99.90;;;;;;4884209;29;21103;-82
2023/05/18 09:45:29;;;;;;;14.37;13.40;;;15.20;99.90;;;;;;4865047;29;20463;-79
2023/05/18 09:48:30;;;;;;;14.13;13.00;;;15.20;99.90;;;;;;4857817;29;20756;-84
2023/05/18 09:51:47;;;;;;;13.60;13.00;;;15.20;99.90;;;;;;4863583;29;20469;-84
2023/05/18 09:55:16;;;;;;;14.63;13.73;;;15.30;99.90;;;;;;4862985;29;21000;-83
2023/05/18 09:58:36;;;;;;;14.40;13.83;;;15.30;99.90;;;;;;4857079;29;20481;-84
2023/05/18 10:01:28;;;;;;;15.20;14.40;;;15.30;99.90;;;;;;4803430;29;20547;-83
2023/05/18 10:04:40;;;;;;;14.07;13.37;;;15.40;99.90;;;;;;4849184;29;20473;-84
2023/05/18 10:11:00;;;;;;;13.73;13.13;;;15.60;99.90;;;;;;4855832;29;20999;-81
2023/05/18 10:13:45;;;;;;;16.13;14.90;;;15.60;99.90;;;;;;4843205;29;20607;-84
2023/05/18 10:16:43;;;;;;;14.43;13.73;;;15.70;99.90;;;;;;4856946;29;20484;-82
2023/05/18 10:19:48;;;;;;;14.73;13.60;;;15.70;99.90;;;;;;4859552;29;20558;-84
2023/05/18 10:26:14;;;;;;;13.50;12.80;;;15.70;99.90;;;;;;4859081;29;20492;-84
2023/05/18 10:41:38;;;;;;;13.67;12.77;;;16.00;99.90;;;;;;4855276;29;20474;-83
2023/05/18 10:44:45;;;;;;;14.43;13.50;;;16.10;99.90;;;;;;4863597;29;20458;-83
2023/05/18 10:50:48;;;;;;;12.23;11.63;;;15.90;99.90;;;;;;4847064;29;20469;-81
2023/05/18 10:53:42;;;;;;;12.20;11.63;;;16.00;99.90;;;;;;4864149;29;20481;-81
2023/05/18 10:56:39;;;;;;;12.40;11.90;;;16.10;99.90;;;;;;4861939;29;20487;-82
2023/05/18 11:20:25;;;;;;;13.97;13.20;;;16.50;99.90;;;;;;4838280;29;20997;-84
2023/05/18 11:30:32;;;;;;;13.73;12.83;;;16.60;99.90;;;;;;4845584;29;20548;-84
2023/05/18 11:33:28;;;;;;;13.70;12.90;;;16.60;99.90;;;;;;4856052;29;20674;-80
2023/05/18 11:36:02;;;;;;;13.97;12.87;;;16.70;99.90;;;;;;4863297;29;20481;-77
2023/05/18 11:38:51;;;;;;;13.13;12.30;;;16.80;99.90;;;;;;4859258;29;20479;-79
2023/05/18 11:41:34;;;;;;;13.60;12.80;;;16.70;99.90;;;;;;4834543;29;20467;-79
2023/05/18 11:44:17;;;;;;;13.13;12.33;;;16.70;99.90;;;;;;4855163;29;20749;-78
2023/05/18 11:47:03;;;;;;;12.93;12.40;;;16.90;99.90;;;;;;4858507;29;20470;-80
2023/05/18 11:49:43;;;;;;;13.43;12.77;;;16.90;99.90;;;;;;4859960;29;21018;-82
2023/05/18 11:52:20;;;;;;;13.10;12.40;;;17.00;99.90;;;;;;4860786;29;20453;-80
2023/05/18 11:54:51;;;;;;;13.07;12.50;;;17.10;99.90;;;;;;4859777;29;20782;-80
2023/05/18 11:57:23;;;;;;;13.13;12.27;;;17.10;99.90;;;;;;4857807;29;20484;-81
2023/05/18 11:59:56;;;;;;;12.63;11.93;;;17.20;99.90;;;;;;4859811;29;20555;-79
2023/05/18 12:02:25;;;;;;;11.10;10.70;;;17.20;99.90;;;;;;4860196;29;20970;-79
2023/05/18 12:04:58;;;;;;;11.57;11.07;;;17.20;99.90;;;;;;4860711;29;20519;-79
2023/05/18 12:07:35;;;;;;;11.70;11.10;;;17.30;99.90;;;;;;4862113;29;20897;-80
2023/05/18 12:10:08;;;;;;;11.87;11.10;;;17.40;99.90;;;;;;4859452;29;20953;-80
2023/05/18 12:12:37;;;;;;;11.43;10.83;;;17.30;99.90;;;;;;4861185;29;20465;-77
2023/05/18 12:15:07;;;;;;;11.63;10.80;;;17.30;99.90;;;;;;4859127;29;20606;-79
2023/05/18 12:17:40;;;;;;;11.77;11.17;;;17.30;99.90;;;;;;4862774;29;20476;-79
2023/05/18 12:20:42;;;;;;;11.13;10.67;;;17.40;99.90;;;;;;4861800;29;20493;-80
2023/05/18 12:23:17;;;;;;;10.80;10.20;;;17.40;99.90;;;;;;4862733;29;20936;-81
2023/05/18 12:25:46;;;;;;;11.00;10.40;;;17.40;99.90;;;;;;4863856;29;20567;-78
2023/05/18 12:28:15;;;;;;;11.03;10.43;;;17.40;99.90;;;;;;4861291;29;20550;-80
2023/05/18 12:30:44;;;;;;;11.70;10.77;;;17.40;99.90;;;;;;4861972;29;20452;-77
2023/05/18 12:33:21;;;;;;;11.67;10.97;;;17.40;99.90;;;;;;4858749;29;20589;-79
2023/05/18 12:35:59;;;;;;;10.30;9.90;;;17.50;99.90;;;;;;4862428;29;21084;-79
2023/05/18 12:38:31;;;;;;;10.70;10.20;;;17.50;99.90;;;;;;4859735;29;20478;-76
2023/05/18 12:41:00;;;;;;;10.30;9.53;;;17.50;99.90;;;;;;4858951;29;20907;-78
2023/05/18 12:43:33;;;;;;;10.37;9.70;;;17.40;99.90;;;;;;4861352;29;20451;-78
2023/05/18 12:46:04;;;;;;;10.60;9.80;;;17.40;99.90;;;;;;4863261;29;20481;-79
2023/05/18 12:48:36;;;;;;;9.77;9.20;;;17.50;99.90;;;;;;4845941;29;20469;-78
2023/05/18 12:51:17;;;;;;;10.80;10.30;;;17.50;99.90;;;;;;4859848;29;20466;-80
2023/05/18 12:53:45;;;;;;;9.70;9.40;;;17.50;99.90;;;;;;4856682;29;20497;-78
2023/05/18 12:56:13;;;;;;;10.20;9.63;;;17.50;99.90;;;;;;4861390;29;20583;-78
2023/05/18 12:58:53;;;;;;;11.50;10.83;;;17.50;99.90;;;;;;4861504;29;20474;-80
2023/05/18 13:01:23;;;;;;;11.50;10.80;;;17.50;99.90;;;;;;4859157;29;20462;-79
2023/05/18 13:03:59;;;;;;;10.80;10.40;;;17.40;99.90;;;;;;4860370;29;20712;-78
2023/05/18 13:06:29;;;;;;;11.43;10.63;;;17.50;99.90;;;;;;4840960;29;20489;-78
2023/05/18 13:08:57;;;;;;;10.37;10.00;;;17.50;99.90;;;;;;4841789;29;20462;-77
2023/05/18 13:11:29;;;;;;;11.10;10.40;;;17.60;99.90;;;;;;4859371;29;20460;-78
2023/05/18 13:14:02;;;;;;;11.53;11.03;;;17.70;99.90;;;;;;4846405;29;20485;-78
2023/05/18 13:16:39;;;;;;;11.20;10.53;;;17.70;99.90;;;;;;4854525;29;20582;-77
2023/05/18 13:19:18;;;;;;;11.47;10.70;;;17.70;99.90;;;;;;4861519;29;21086;-78
2023/05/18 13:21:56;;;;;;;10.57;10.00;;;17.60;99.90;;;;;;4859810;29;20532;-78
2023/05/18 13:24:37;;;;;;;11.57;10.77;;;17.50;99.90;;;;;;4855954;29;20847;-78
2023/05/18 13:27:28;;;;;;;11.00;10.60;;;17.60;99.90;;;;;;4857951;29;20687;-80
2023/05/18 13:30:00;;;;;;;11.50;11.00;;;17.50;99.90;;;;;;4859982;29;20552;-78
2023/05/18 13:32:28;;;;;;;11.57;10.87;;;17.50;99.90;;;;;;4854629;29;20490;-79
2023/05/18 13:34:56;;;;;;;11.43;11.03;;;17.50;99.90;;;;;;4859562;29;20792;-77
2023/05/18 13:37:26;;;;;;;10.30;9.70;;;17.50;99.90;;;;;;4862436;29;20489;-78
2023/05/18 13:39:54;;;;;;;10.93;10.37;;;17.50;99.90;;;;;;4861607;29;20467;-77
2023/05/18 13:42:22;;;;;;;11.27;10.67;;;17.60;99.90;;;;;;4855947;29;20464;-79
2023/05/18 13:44:50;;;;;;;12.23;11.33;;;17.70;99.90;;;;;;4860623;29;20461;-77
2023/05/18 13:47:19;;;;;;;11.47;10.90;;;17.70;99.90;;;;;;4859202;29;20487;-76
2023/05/18 13:49:47;;;;;;;11.30;10.60;;;17.70;99.90;;;;;;4862985;29;20515;-76
2023/05/18 13:52:16;;;;;;;11.17;10.53;;;17.70;99.90;;;;;;4861480;29;20467;-77
2023/05/18 13:54:45;;;;;;;10.90;10.40;;;17.80;99.90;;;;;;4844680;29;20478;-77
2023/05/18 13:57:13;;;;;;;10.90;10.23;;;17.80;99.90;;;;;;4864402;29;20495;-76
2023/05/18 13:59:41;;;;;;;11.17;10.40;;;17.80;99.90;;;;;;4859567;29;20469;-78
2023/05/18 14:02:09;;;;;;;11.97;10.90;;;17.80;99.90;;;;;;4864918;29;20996;-77
2023/05/18 14:04:38;;;;;;;11.57;10.77;;;17.90;99.90;;;;;;4859213;29;20456;-77
2023/05/18 14:07:08;;;;;;;11.17;10.67;;;17.90;99.90;;;;;;4856937;29;20494;-75
2023/05/18 14:09:36;;;;;;;10.87;10.37;;;18.00;99.90;;;;;;4861875;29;20588;-77
2023/05/18 14:12:09;;;;;;;10.57;10.03;;;18.00;99.90;;;;;;4838096;29;20994;-77
2023/05/18 14:14:37;;;;;;;10.83;9.87;;;18.00;99.90;;;;;;4860883;29;20505;-77
2023/05/18 14:17:05;;;;;;;10.83;10.20;;;17.90;99.90;;;;;;4856512;29;20479;-78
2023/05/18 14:19:36;;;;;;;10.03;9.53;;;17.90;99.90;;;;;;4863856;29;20920;-78
2023/05/18 14:22:05;;;;;;;10.07;9.40;;;17.90;99.90;;;;;;4859210;29;20571;-78
2023/05/18 14:24:33;;;;;;;10.80;10.30;;;17.80;99.90;;;;;;4867022;29;20476;-77
2023/05/18 14:27:01;;;;;;;10.77;10.17;;;17.80;99.90;;;;;;4860692;29;20498;-77
2023/05/18 14:29:32;;;;;;;11.00;10.37;;;17.80;99.90;;;;;;4862585;29;21052;-77
2023/05/18 14:32:03;;;;;;;10.83;10.20;;;17.90;99.90;;;;;;4862689;29;20478;-78
2023/05/18 14:34:31;;;;;;;11.23;10.73;;;17.80;99.90;;;;;;4861457;29;21486;-77
2023/05/18 14:36:59;;;;;;;11.70;11.10;;;17.90;99.90;;;;;;4863436;29;20499;-77
2023/05/18 14:39:27;;;;;;;11.17;10.50;;;17.90;99.90;;;;;;4861764;29;20482;-77
2023/05/18 14:41:55;;;;;;;11.97;10.97;;;17.90;99.90;;;;;;4862604;29;20474;-77
2023/05/18 14:44:23;;;;;;;10.60;9.93;;;17.80;99.90;;;;;;4865743;29;21016;-78
2023/05/18 14:46:53;;;;;;;21.10;11.00;;;17.80;99.90;;;;;;4860734;29;20494;-78
2023/05/18 14:49:22;;;;;;;10.43;9.83;;;17.80;99.90;;;;;;4862373;29;20507;-77
2023/05/18 14:51:50;;;;;;;10.43;9.93;;;17.80;99.90;;;;;;4860373;29;20483;-77
2023/05/18 14:54:19;;;;;;;12.13;11.43;;;17.70;99.90;;;;;;4864395;29;20459;-78
2023/05/18 14:56:47;;;;;;;10.67;10.17;;;17.70;99.90;;;;;;4863978;29;20503;-80
2023/05/18 14:59:15;;;;;;;11.20;10.13;;;17.70;99.90;;;;;;4865468;29;20840;-78
2023/05/18 15:01:43;;;;;;;10.03;9.43;;;17.70;99.90;;;;;;4862891;29;20473;-79
2023/05/18 15:04:14;;;;;;;10.27;9.70;;;17.60;99.90;;;;;;4859090;29;20468;-77
2023/05/18 15:06:42;;;;;;;9.80;9.40;;;17.60;99.90;;;;;;4860700;29;20487;-77
2023/05/18 15:09:10;;;;;;;11.13;10.17;;;17.60;99.90;;;;;;4855511;29;20534;-78
2023/05/18 15:11:39;;;;;;;11.43;10.57;;;17.50;99.90;;;;;;4861909;29;20883;-78
2023/05/18 15:14:07;;;;;;;10.70;9.93;;;17.50;99.90;;;;;;4860266;29;20462;-78
2023/05/18 15:16:35;;;;;;;9.80;9.40;;;17.40;99.90;;;;;;4840967;29;20545;-78
2023/05/18 15:19:04;;;;;;;11.33;10.43;;;17.40;99.90;;;;;;4856187;29;20483;-80
2023/05/18 15:21:34;;;;;;;9.63;9.13;;;17.40;99.90;;;;;;4860438;29;20496;-83
2023/05/18 15:24:14;;;;;;;9.87;9.27;;;17.40;99.90;;;;;;4858934;29;20469;-80
2023/05/18 15:27:20;;;;;;;10.13;9.60;;;17.40;99.90;;;;;;4860541;29;20478;-82
2023/05/18 15:30:14;;;;;;;10.40;9.70;;;17.40;99.90;;;;;;4859369;29;20946;-80
2023/05/18 15:33:02;;;;;;;9.90;9.20;;;17.40;99.90;;;;;;4859596;29;20499;-81
2023/05/18 15:36:20;;;;;;;9.80;9.30;;;17.30;99.90;;;;;;4860600;29;20528;-80
2023/05/18 15:39:45;;;;;;;10.10;9.20;;;17.40;99.90;;;;;;4862983;29;20538;-78
2023/05/18 15:45:51;;;;;;;9.87;9.47;;;17.30;99.90;;;;;;4864218;29;20471;-79
2023/05/18 15:48:46;;;;;;;9.60;9.00;;;17.20;99.90;;;;;;4840854;29;20466;-80
2023/05/18 15:55:01;;;;;;;9.30;8.80;;;16.90;99.90;;;;;;4860591;29;20889;-81
2023/05/18 16:01:09;;;;;;;8.97;8.57;;;17.00;99.90;;;;;;4861025;29;20463;-80
2023/05/18 16:04:06;;;;;;;9.17;8.63;;;16.80;99.90;;;;;;4862699;29;20488;-81
2023/05/18 16:07:09;;;;;;;8.47;8.10;;;16.80;99.90;;;;;;4857971;29;20473;-83
2023/05/18 16:10:00;;;;;;;8.83;8.13;;;16.80;99.90;;;;;;4851972;29;20871;-82
2023/05/18 16:12:35;;;;;;;8.87;8.40;;;16.80;99.90;;;;;;4828035;29;20465;-80
2023/05/18 16:15:13;;;;;;;8.87;8.07;;;16.70;99.90;;;;;;4853637;29;20574;-80
2023/05/18 16:18:06;;;;;;;8.80;8.30;;;16.60;99.90;;;;;;4851961;29;20534;-81
2023/05/18 16:24:34;;;;;;;8.23;7.83;;;16.50;99.90;;;;;;4828534;29;20473;-82
2023/05/18 16:30:45;;;;;;;9.43;8.83;;;16.50;99.90;;;;;;4843980;29;21019;-80
2023/05/18 16:33:22;;;;;;;8.60;8.10;;;16.50;99.90;;;;;;4850396;29;20465;-80
2023/05/18 16:42:25;;;;;;;8.97;8.33;;;16.50;99.90;;;;;;4836296;29;20489;-80
2023/05/18 16:48:22;;;;;;;8.83;8.53;;;16.40;99.90;;;;;;4844927;29;20469;-81
2023/05/18 16:51:08;;;;;;;9.07;8.57;;;16.40;99.90;;;;;;4859742;29;20493;-81
2023/05/18 16:56:53;;;;;;;9.03;8.30;;;16.30;99.90;;;;;;4798937;29;20503;-83
2023/05/18 16:59:59;;;;;;;8.90;8.50;;;16.40;99.90;;;;;;4859946;29;20474;-79
2023/05/18 17:05:37;;;;;;;8.50;8.20;;;16.40;99.90;;;;;;4852581;29;20848;-81
2023/05/18 17:08:16;;;;;;;9.60;8.90;;;16.30;99.90;;;;;;4859387;29;20507;-82
2023/05/18 17:11:13;;;;;;;9.73;9.10;;;16.40;99.90;;;;;;4856422;29;20503;-83
2023/05/18 17:14:09;;;;;;;10.00;9.30;;;16.40;99.90;;;;;;4859552;29;20532;-82
2023/05/18 17:16:54;;;;;;;9.33;8.83;;;16.40;99.90;;;;;;4856235;29;20233;-81
2023/05/18 17:19:53;;;;;;;9.03;8.60;;;16.40;99.90;;;;;;4856249;29;21036;-80
2023/05/18 17:22:52;;;;;;;8.87;8.30;;;16.30;99.90;;;;;;4855512;29;20473;-80
2023/05/18 17:25:40;;;;;;;9.07;8.67;;;16.40;99.90;;;;;;4847056;29;20468;-81
2023/05/18 17:28:31;;;;;;;8.47;8.13;;;16.30;99.90;;;;;;4848092;29;20472;-81
2023/05/18 17:31:08;;;;;;;8.60;8.30;;;16.30;99.90;;;;;;4851549;29;20466;-80
2023/05/18 17:33:55;;;;;;;8.63;8.20;;;16.30;99.90;;;;;;4857362;29;20521;-80
2023/05/18 17:36:38;;;;;;;9.67;9.07;;;16.30;99.90;;;;;;4857723;29;20503;-82
2023/05/18 17:39:18;;;;;;;9.53;9.10;;;16.30;99.90;;;;;;4860510;29;20468;-82
2023/05/18 17:42:02;;;;;;;8.90;8.50;;;16.30;99.90;;;;;;4855990;29;21080;-79
2023/05/18 17:47:42;;;;;;;10.03;9.20;;;16.30;99.90;;;;;;4853065;29;20492;-81
2023/05/18 17:50:21;;;;;;;8.60;8.20;;;16.20;99.90;;;;;;4836499;29;20532;-82
2023/05/18 17:53:04;;;;;;;8.87;8.30;;;16.20;99.90;;;;;;4854988;29;20469;-82
2023/05/18 17:55:57;;;;;;;9.70;8.90;;;16.20;99.90;;;;;;4851733;29;20479;-81
2023/05/18 17:58:25;;;;;;;8.70;8.30;;;16.10;99.90;;;;;;4849668;29;20217;-81
2023/05/18 18:00:53;;;;;;;9.50;8.83;;;16.20;99.90;;;;;;4832603;29;20466;-77
2023/05/18 18:03:22;;;;;;;9.20;8.70;;;16.30;99.90;;;;;;4852816;29;21064;-80
2023/05/18 18:05:50;;;;;;;9.17;8.40;;;16.30;99.90;;;;;;4853676;29;20462;-82
2023/05/18 18:08:19;;;;;;;9.83;9.33;;;16.30;99.90;;;;;;4853866;29;20462;-81
2023/05/18 18:10:53;;;;;;;9.20;8.70;;;16.20;99.90;;;;;;4853848;29;20535;-85
2023/05/18 18:13:25;;;;;;;9.20;8.40;;;16.20;99.90;;;;;;4860861;29;20713;-82
2023/05/18 18:15:56;;;;;;;8.30;7.70;;;16.20;99.90;;;;;;4855858;29;20504;-80
2023/05/18 18:18:25;;;;;;;8.57;7.80;;;16.20;99.90;;;;;;4855486;29;20669;-83
2023/05/18 18:20:55;;;;;;;8.50;8.00;;;16.20;99.90;;;;;;4858441;29;20467;-82
2023/05/18 18:23:24;;;;;;;8.90;8.37;;;16.10;99.90;;;;;;4855550;29;20454;-83
2023/05/18 18:25:57;;;;;;;9.10;8.47;;;16.10;99.90;;;;;;4848024;29;20493;-82
2023/05/18 18:28:30;;;;;;;9.33;8.70;;;16.00;99.90;;;;;;4842733;29;20462;-83
2023/05/18 18:31:00;;;;;;;8.97;8.57;;;16.00;99.90;;;;;;4853150;29;21009;-82
2023/05/18 18:33:31;;;;;;;8.73;8.30;;;16.00;99.90;;;;;;4853795;29;20483;-82
2023/05/18 18:36:06;;;;;;;8.60;8.03;;;16.00;99.90;;;;;;4854488;29;20883;-83
2023/05/18 18:38:37;;;;;;;9.50;8.90;;;16.00;99.90;;;;;;4842095;29;21011;-82
2023/05/18 18:41:09;;;;;;;9.77;9.10;;;16.00;99.90;;;;;;4851335;29;20961;-84
2023/05/18 18:43:40;;;;;;;9.63;9.00;;;16.00;99.90;;;;;;4862387;29;20465;-82
2023/05/18 18:46:10;;;;;;;9.00;8.60;;;16.00;99.90;;;;;;4863855;29;20626;-85
2023/05/18 18:48:42;;;;;;;9.43;8.77;;;15.90;99.90;;;;;;4867824;29;21057;-86
2023/05/18 18:51:14;;;;;;;10.20;8.60;;;15.90;99.90;;;;;;4875907;29;20464;-86
2023/05/18 18:53:45;;;;;;;9.10;8.60;;;15.90;99.90;;;;;;4877913;29;20559;-77
2023/05/18 18:56:13;;;;;;;8.97;8.47;;;15.90;99.90;;;;;;4876745;29;20530;-80
2023/05/18 18:58:43;;;;;;;9.33;8.80;;;15.80;99.90;;;;;;4868630;29;20488;-78
2023/05/18 19:01:11;;;;;;;9.43;8.93;;;15.80;99.90;;;;;;4863195;29;20571;-80
2023/05/18 19:03:40;;;;;;;8.73;8.37;;;15.80;99.90;;;;;;4867200;29;22539;-78
2023/05/18 19:06:08;;;;;;;8.60;8.13;;;15.80;99.90;;;;;;4869586;29;20515;-85
2023/05/18 19:08:36;;;;;;;8.70;8.30;;;15.70;99.90;;;;;;4869874;29;21008;-84
2023/05/18 19:11:04;;;;;;;9.57;8.93;;;15.70;99.90;;;;;;4872237;29;20468;-85